Terminal Aerodrome Forecast
Issued by NWS Sioux Falls, SD

Home | Current Version | Previous Version | Graphics & Text | Print | Product List | Glossary Off
Versions: 1 2 3 4 5 6 7 8 9 10 11 12 13 14 15 16 17 18 19 20 21 22 23 24 25 26 27 28 29 30 31 32 33 34

000
FTUS43 KFSD 231124
TAFSUX
TAF
KSUX 231124Z 2312/2412 09005KT P6SM BKN100
     FM231400 12006KT P6SM SCT090
     FM231600 14011KT P6SM SKC
     FM232300 16012G19KT P6SM SCT250
     FM240200 14010KT P6SM SCT050 BKN130
     FM240800 16013G20KT P6SM BKN045=

USA.gov is the U.S. government's official web portal to all federal, state and local government web resources and services.